sensor_id;sensor_type;location;lat;lon;timestamp;pressure;altitude;pressure_sealevel;temperature;humidity
7832;BME280;3961;42.058;25.586;2023-04-30T00:01:39;63724.88;;;13.33;83.12
7832;BME280;3961;42.058;25.586;2023-04-30T00:04:04;63717.81;;;13.32;82.66
7832;BME280;3961;42.058;25.586;2023-04-30T00:06:30;63720.13;;;13.34;82.29
7832;BME280;3961;42.058;25.586;2023-04-30T00:08:56;63732.31;;;13.44;80.81
7832;BME280;3961;42.058;25.586;2023-04-30T00:11:21;63745.63;;;13.56;80.49
7832;BME280;3961;42.058;25.586;2023-04-30T00:13:47;63744.59;;;13.51;79.88
7832;BME280;3961;42.058;25.586;2023-04-30T00:16:12;63742.84;;;13.49;79.88
7832;BME280;3961;42.058;25.586;2023-04-30T00:18:38;63747.72;;;13.56;79.25
7832;BME280;3961;42.058;25.586;2023-04-30T00:21:03;63750.84;;;13.61;78.26
7832;BME280;3961;42.058;25.586;2023-04-30T00:23:29;63747.13;;;13.55;79.54
7832;BME280;3961;42.058;25.586;2023-04-30T00:25:54;63733.22;;;13.43;83.41
7832;BME280;3961;42.058;25.586;2023-04-30T00:28:20;63724.09;;;13.30;85.64
7832;BME280;3961;42.058;25.586;2023-04-30T00:30:46;63693.22;;;13.08;86.81
7832;BME280;3961;42.058;25.586;2023-04-30T00:33:11;63672.41;;;12.90;88.94
7832;BME280;3961;42.058;25.586;2023-04-30T00:35:37;63661.63;;;12.83;88.73
7832;BME280;3961;42.058;25.586;2023-04-30T00:38:02;63697.28;;;13.11;88.39
7832;BME280;3961;42.058;25.586;2023-04-30T00:40:28;63702.28;;;13.13;88.50
7832;BME280;3961;42.058;25.586;2023-04-30T00:42:54;63657.69;;;12.74;89.14
7832;BME280;3961;42.058;25.586;2023-04-30T00:45:21;63655.03;;;12.74;92.52
7832;BME280;3961;42.058;25.586;2023-04-30T00:47:47;63643.31;;;12.69;94.06
7832;BME280;3961;42.058;25.586;2023-04-30T00:50:14;63658.03;;;12.72;94.39
7832;BME280;3961;42.058;25.586;2023-04-30T00:52:43;63659.19;;;12.73;95.37
7832;BME280;3961;42.058;25.586;2023-04-30T00:55:10;63632.44;;;12.55;98.59
7832;BME280;3961;42.058;25.586;2023-04-30T00:57:37;63627.00;;;12.48;99.58
7832;BME280;3961;42.058;25.586;2023-04-30T01:00:04;63605.25;;;12.31;100.00
7832;BME280;3961;42.058;25.586;2023-04-30T01:02:30;63585.81;;;12.16;100.00
7832;BME280;3961;42.058;25.586;2023-04-30T01:04:56;63600.03;;;12.26;100.00
7832;BME280;3961;42.058;25.586;2023-04-30T01:07:24;63588.13;;;12.18;100.00
7832;BME280;3961;42.058;25.586;2023-04-30T01:09:51;63589.84;;;12.20;100.00
7832;BME280;3961;42.058;25.586;2023-04-30T01:17:47;63551.22;;;11.81;100.00
7832;BME280;3961;42.058;25.586;2023-04-30T01:20:18;63527.97;;;11.65;100.00
7832;BME280;3961;42.058;25.586;2023-04-30T01:23:15;63532.69;;;11.65;100.00
7832;BME280;3961;42.058;25.586;2023-04-30T01:26:12;63533.28;;;11.65;100.00
7832;BME280;3961;42.058;25.586;2023-04-30T01:28:39;63525.41;;;11.61;100.00
7832;BME280;3961;42.058;25.586;2023-04-30T01:31:13;63516.16;;;11.53;100.00
7832;BME280;3961;42.058;25.586;2023-04-30T01:33:39;63506.91;;;11.44;100.00
7832;BME280;3961;42.058;25.586;2023-04-30T01:39:49;63526.47;;;11.66;100.00
7832;BME280;3961;42.058;25.586;2023-04-30T01:42:22;63545.66;;;11.78;100.00
7832;BME280;3961;42.058;25.586;2023-04-30T01:53:48;63559.78;;;11.93;100.00
7832;BME280;3961;42.058;25.586;2023-04-30T01:56:20;63533.72;;;11.70;100.00
7832;BME280;3961;42.058;25.586;2023-04-30T01:58:48;63525.75;;;11.59;100.00
7832;BME280;3961;42.058;25.586;2023-04-30T02:01:28;63485.88;;;11.24;100.00
7832;BME280;3961;42.058;25.586;2023-04-30T02:03:54;63476.03;;;11.15;100.00
7832;BME280;3961;42.058;25.586;2023-04-30T02:06:19;63507.47;;;11.45;100.00
7832;BME280;3961;42.058;25.586;2023-04-30T02:08:45;63523.09;;;11.59;100.00
7832;BME280;3961;42.058;25.586;2023-04-30T02:11:11;63532.34;;;11.67;100.00
7832;BME280;3961;42.058;25.586;2023-04-30T02:13:36;63553.75;;;11.86;100.00
7832;BME280;3961;42.058;25.586;2023-04-30T02:16:02;63541.69;;;11.70;100.00
7832;BME280;3961;42.058;25.586;2023-04-30T02:18:28;63526.34;;;11.59;100.00
7832;BME280;3961;42.058;25.586;2023-04-30T02:20:54;63527.72;;;11.63;100.00
7832;BME280;3961;42.058;25.586;2023-04-30T02:23:19;63510.59;;;11.50;100.00
7832;BME280;3961;42.058;25.586;2023-04-30T02:25:45;63504.00;;;11.42;100.00
7832;BME280;3961;42.058;25.586;2023-04-30T02:28:10;63501.94;;;11.42;100.00
7832;BME280;3961;42.058;25.586;2023-04-30T02:30:36;63497.31;;;11.38;100.00
7832;BME280;3961;42.058;25.586;2023-04-30T02:33:01;63495.94;;;11.35;100.00
7832;BME280;3961;42.058;25.586;2023-04-30T02:35:27;63483.44;;;11.26;100.00
7832;BME280;3961;42.058;25.586;2023-04-30T02:37:53;63487.25;;;11.27;100.00
7832;BME280;3961;42.058;25.586;2023-04-30T02:40:19;63477.78;;;11.17;100.00
7832;BME280;3961;42.058;25.586;2023-04-30T02:42:44;63425.22;;;10.70;100.00
7832;BME280;3961;42.058;25.586;2023-04-30T02:45:10;63465.88;;;11.08;100.00
7832;BME280;3961;42.058;25.586;2023-04-30T02:47:35;63452.81;;;10.99;100.00
7832;BME280;3961;42.058;25.586;2023-04-30T02:50:01;63478.34;;;11.17;100.00
7832;BME280;3961;42.058;25.586;2023-04-30T02:52:26;63474.19;;;11.18;100.00
7832;BME280;3961;42.058;25.586;2023-04-30T02:54:52;63469.09;;;11.09;100.00
7832;BME280;3961;42.058;25.586;2023-04-30T02:57:17;63490.16;;;11.30;100.00
7832;BME280;3961;42.058;25.586;2023-04-30T02:59:43;63491.88;;;11.31;100.00
7832;BME280;3961;42.058;25.586;2023-04-30T03:02:10;63473.63;;;11.18;100.00
7832;BME280;3961;42.058;25.586;2023-04-30T03:04:37;63495.00;;;11.36;100.00
7832;BME280;3961;42.058;25.586;2023-04-30T03:07:02;63509.56;;;11.44;100.00
7832;BME280;3961;42.058;25.586;2023-04-30T03:09:29;63502.28;;;11.40;100.00
7832;BME280;3961;42.058;25.586;2023-04-30T03:11:55;63505.97;;;11.46;100.00
7832;BME280;3961;42.058;25.586;2023-04-30T03:14:20;63508.88;;;11.49;100.00
7832;BME280;3961;42.058;25.586;2023-04-30T03:16:46;63504.34;;;11.40;100.00
7832;BME280;3961;42.058;25.586;2023-04-30T03:19:11;63505.16;;;11.43;100.00
7832;BME280;3961;42.058;25.586;2023-04-30T03:21:37;63498.25;;;11.37;100.00
7832;BME280;3961;42.058;25.586;2023-04-30T03:24:03;63493.84;;;11.35;100.00
7832;BME280;3961;42.058;25.586;2023-04-30T03:26:28;63500.53;;;11.39;100.00
7832;BME280;3961;42.058;25.586;2023-04-30T03:28:54;63496.16;;;11.37;100.00
7832;BME280;3961;42.058;25.586;2023-04-30T03:31:20;63497.44;;;11.34;100.00
7832;BME280;3961;42.058;25.586;2023-04-30T03:33:45;63480.91;;;11.22;100.00
7832;BME280;3961;42.058;25.586;2023-04-30T03:36:11;63496.72;;;11.38;100.00
7832;BME280;3961;42.058;25.586;2023-04-30T03:38:37;63516.16;;;11.53;100.00
7832;BME280;3961;42.058;25.586;2023-04-30T03:41:02;63512.69;;;11.50;100.00
7832;BME280;3961;42.058;25.586;2023-04-30T03:43:28;63543.94;;;11.77;100.00
7832;BME280;3961;42.058;25.586;2023-04-30T03:45:53;63532.69;;;11.65;100.00
7832;BME280;3961;42.058;25.586;2023-04-30T03:48:19;63498.47;;;11.39;100.00
7832;BME280;3961;42.058;25.586;2023-04-30T03:50:44;63477.91;;;11.24;100.00
7832;BME280;3961;42.058;25.586;2023-04-30T03:53:10;63477.78;;;11.17;100.00
7832;BME280;3961;42.058;25.586;2023-04-30T03:55:36;63474.19;;;11.18;100.00
7832;BME280;3961;42.058;25.586;2023-04-30T03:58:01;63468.75;;;11.11;100.00
7832;BME280;3961;42.058;25.586;2023-04-30T04:00:27;63458.03;;;11.04;100.00
7832;BME280;3961;42.058;25.586;2023-04-30T04:02:53;63441.84;;;10.90;100.00
7832;BME280;3961;42.058;25.586;2023-04-30T04:05:19;63472.22;;;11.14;100.00
7832;BME280;3961;42.058;25.586;2023-04-30T04:07:44;63481.25;;;11.20;100.00
7832;BME280;3961;42.058;25.586;2023-04-30T04:10:10;63497.09;;;11.36;100.00
7832;BME280;3961;42.058;25.586;2023-04-30T04:12:35;63515.00;;;11.52;100.00
7832;BME280;3961;42.058;25.586;2023-04-30T04:15:01;63541.34;;;11.72;100.00
7832;BME280;3961;42.058;25.586;2023-04-30T04:17:26;63552.94;;;11.83;100.00
7832;BME280;3961;42.058;25.586;2023-04-30T04:19:52;63555.38;;;11.92;100.00
7832;BME280;3961;42.058;25.586;2023-04-30T04:22:17;63570.06;;;11.95;100.00
7832;BME280;3961;42.058;25.586;2023-04-30T04:24:43;63574.94;;;12.02;100.00
7832;BME280;3961;42.058;25.586;2023-04-30T04:27:08;63587.31;;;12.15;100.00
7832;BME280;3961;42.058;25.586;2023-04-30T04:29:34;63592.19;;;12.22;100.00
7832;BME280;3961;42.058;25.586;2023-04-30T04:32:00;63608.16;;;12.33;100.00
7832;BME280;3961;42.058;25.586;2023-04-30T04:34:26;63612.31;;;12.32;100.00
7832;BME280;3961;42.058;25.586;2023-04-30T04:36:52;63612.53;;;12.35;100.00
7832;BME280;3961;42.058;25.586;2023-04-30T04:39:17;63607.91;;;12.31;100.00
7832;BME280;3961;42.058;25.586;2023-04-30T04:41:43;63601.19;;;12.27;100.00
7832;BME280;3961;42.058;25.586;2023-04-30T04:44:08;63597.97;;;12.27;100.00
7832;BME280;3961;42.058;25.586;2023-04-30T04:46:34;63617.41;;;12.41;100.00
7832;BME280;3961;42.058;25.586;2023-04-30T04:49:03;63613.09;;;12.35;100.00
7832;BME280;3961;42.058;25.586;2023-04-30T04:51:28;63588.47;;;12.16;100.00
7832;BME280;3961;42.058;25.586;2023-04-30T04:53:54;63607.78;;;12.35;100.00
7832;BME280;3961;42.058;25.586;2023-04-30T04:56:19;63635.47;;;12.53;100.00
7832;BME280;3961;42.058;25.586;2023-04-30T04:58:45;63622.03;;;12.45;100.00
7832;BME280;3961;42.058;25.586;2023-04-30T05:01:11;63622.38;;;12.43;100.00
7832;BME280;3961;42.058;25.586;2023-04-30T05:03:37;63571.91;;;12.04;100.00
7832;BME280;3961;42.058;25.586;2023-04-30T05:06:03;63571.91;;;12.04;100.00
7832;BME280;3961;42.058;25.586;2023-04-30T05:08:30;63589.38;;;12.15;100.00
7832;BME280;3961;42.058;25.586;2023-04-30T05:10:55;63599.13;;;12.28;100.00
7832;BME280;3961;42.058;25.586;2023-04-30T05:13:21;63609.88;;;12.35;100.00
7832;BME280;3961;42.058;25.586;2023-04-30T05:15:50;63639.41;;;12.61;100.00
7832;BME280;3961;42.058;25.586;2023-04-30T05:18:16;63649.47;;;12.72;100.00
7832;BME280;3961;42.058;25.586;2023-04-30T05:20:42;63667.19;;;12.85;100.00
7832;BME280;3961;42.058;25.586;2023-04-30T05:23:07;63689.41;;;13.07;100.00
7832;BME280;3961;42.058;25.586;2023-04-30T05:25:34;63666.94;;;12.83;100.00
7832;BME280;3961;42.058;25.586;2023-04-30T05:28:00;63716.78;;;13.26;99.88
7832;BME280;3961;42.058;25.586;2023-04-30T05:30:25;63736.69;;;13.46;98.79
7832;BME280;3961;42.058;25.586;2023-04-30T05:32:51;63735.88;;;13.43;97.91
7832;BME280;3961;42.058;25.586;2023-04-30T05:35:18;63733.22;;;13.43;97.67
7832;BME280;3961;42.058;25.586;2023-04-30T05:37:44;63742.84;;;13.49;96.87
7832;BME280;3961;42.058;25.586;2023-04-30T05:40:10;63719.69;;;13.29;98.75
7832;BME280;3961;42.058;25.586;2023-04-30T05:42:36;63731.47;;;13.41;99.30
7832;BME280;3961;42.058;25.586;2023-04-30T05:45:05;63669.25;;;12.85;100.00
7832;BME280;3961;42.058;25.586;2023-04-30T05:47:31;63683.16;;;12.97;100.00
7832;BME280;3961;42.058;25.586;2023-04-30T05:49:57;63700.53;;;13.12;100.00
7832;BME280;3961;42.058;25.586;2023-04-30T05:52:22;63688.84;;;13.06;100.00
7832;BME280;3961;42.058;25.586;2023-04-30T05:54:48;63721.06;;;13.32;99.77
7832;BME280;3961;42.058;25.586;2023-04-30T05:57:13;63714.94;;;13.29;98.08
7832;BME280;3961;42.058;25.586;2023-04-30T05:59:39;63740.19;;;13.49;96.99
7832;BME280;3961;42.058;25.586;2023-04-30T06:02:05;63751.53;;;13.57;100.00
7832;BME280;3961;42.058;25.586;2023-04-30T06:04:30;63756.19;;;13.61;100.00
7832;BME280;3961;42.058;25.586;2023-04-30T06:06:56;63743.09;;;13.52;100.00
7832;BME280;3961;42.058;25.586;2023-04-30T06:09:21;63774.38;;;13.79;100.00
7832;BME280;3961;42.058;25.586;2023-04-30T06:11:47;63809.16;;;14.09;100.00
7832;BME280;3961;42.058;25.586;2023-04-30T06:14:15;63794.09;;;13.96;100.00
7832;BME280;3961;42.058;25.586;2023-04-30T06:16:42;63778.19;;;13.80;100.00
7832;BME280;3961;42.058;25.586;2023-04-30T06:19:08;63767.06;;;13.75;100.00
7832;BME280;3961;42.058;25.586;2023-04-30T06:21:34;63741.91;;;13.51;100.00
7832;BME280;3961;42.058;25.586;2023-04-30T06:23:59;63751.53;;;13.57;100.00
7832;BME280;3961;42.058;25.586;2023-04-30T06:26:26;63765.44;;;13.69;100.00
7832;BME280;3961;42.058;25.586;2023-04-30T06:28:51;63796.38;;;13.98;100.00
7832;BME280;3961;42.058;25.586;2023-04-30T06:31:17;63831.78;;;14.29;100.00
7832;BME280;3961;42.058;25.586;2023-04-30T06:33:42;63861.03;;;14.57;98.69
7832;BME280;3961;42.058;25.586;2023-04-30T06:36:08;63907.19;;;14.95;95.90
7832;BME280;3961;42.058;25.586;2023-04-30T06:38:33;63900.47;;;14.92;94.55
7832;BME280;3961;42.058;25.586;2023-04-30T06:40:58;63927.63;;;15.08;93.31
7832;BME280;3961;42.058;25.586;2023-04-30T06:43:24;63924.25;;;15.12;89.58
7832;BME280;3961;42.058;25.586;2023-04-30T06:45:49;63941.81;;;15.23;87.13
7832;BME280;3961;42.058;25.586;2023-04-30T06:48:15;63935.66;;;15.20;86.43
7832;BME280;3961;42.058;25.586;2023-04-30T06:50:40;63968.38;;;15.51;85.34
7832;BME280;3961;42.058;25.586;2023-04-30T06:53:13;63963.50;;;15.44;87.04
7832;BME280;3961;42.058;25.586;2023-04-30T06:55:39;63986.75;;;15.65;84.71
7832;BME280;3961;42.058;25.586;2023-04-30T06:58:05;64026.03;;;15.97;83.91
7832;BME280;3961;42.058;25.586;2023-04-30T07:00:31;64059.16;;;16.26;82.41
7832;BME280;3961;42.058;25.586;2023-04-30T07:02:57;64100.41;;;16.62;81.74
7832;BME280;3961;42.058;25.586;2023-04-30T07:05:27;64139.97;;;16.96;75.70
7832;BME280;3961;42.058;25.586;2023-04-30T07:07:53;64154.53;;;17.09;73.05
7832;BME280;3961;42.058;25.586;2023-04-30T07:10:18;64198.97;;;17.50;71.54
7832;BME280;3961;42.058;25.586;2023-04-30T07:12:44;64241.84;;;17.85;69.58
7832;BME280;3961;42.058;25.586;2023-04-30T07:15:10;64215.88;;;17.65;66.97
7832;BME280;3961;42.058;25.586;2023-04-30T07:17:36;64298.91;;;18.35;67.29
7832;BME280;3961;42.058;25.586;2023-04-30T07:20:04;64324.19;;;18.59;63.99
7832;BME280;3961;42.058;25.586;2023-04-30T07:22:30;64317.41;;;18.56;64.00
7832;BME280;3961;42.058;25.586;2023-04-30T07:24:56;64331.78;;;18.66;62.53
7832;BME280;3961;42.058;25.586;2023-04-30T07:27:22;64403.81;;;19.26;59.92
7832;BME280;3961;42.058;25.586;2023-04-30T07:29:48;64405.00;;;19.27;57.49
7832;BME280;3961;42.058;25.586;2023-04-30T07:32:13;64431.00;;;19.48;58.20
7832;BME280;3961;42.058;25.586;2023-04-30T07:34:39;64472.66;;;19.86;55.46
7832;BME280;3961;42.058;25.586;2023-04-30T07:37:05;64469.97;;;19.86;55.39
7832;BME280;3961;42.058;25.586;2023-04-30T07:39:31;64450.16;;;19.69;55.28
7832;BME280;3961;42.058;25.586;2023-04-30T07:41:56;64448.75;;;19.65;54.34
7832;BME280;3961;42.058;25.586;2023-04-30T07:44:22;64448.41;;;19.67;54.25
7832;BME280;3961;42.058;25.586;2023-04-30T07:46:47;64485.88;;;19.95;53.65
7832;BME280;3961;42.058;25.586;2023-04-30T07:49:13;64400.91;;;19.24;55.60
7832;BME280;3961;42.058;25.586;2023-04-30T07:51:39;64359.50;;;18.88;57.24
7832;BME280;3961;42.058;25.586;2023-04-30T07:54:06;64376.66;;;19.05;56.46
7832;BME280;3961;42.058;25.586;2023-04-30T07:56:32;64373.97;;;19.05;56.42
7832;BME280;3961;42.058;25.586;2023-04-30T07:58:57;64388.69;;;19.13;57.42
7832;BME280;3961;42.058;25.586;2023-04-30T08:01:23;64434.75;;;19.53;55.98
7832;BME280;3961;42.058;25.586;2023-04-30T08:03:48;64458.44;;;19.71;55.36
7832;BME280;3961;42.058;25.586;2023-04-30T08:06:14;64421.56;;;19.44;53.94
7832;BME280;3961;42.058;25.586;2023-04-30T08:08:40;64478.28;;;19.89;52.44
7832;BME280;3961;42.058;25.586;2023-04-30T08:11:05;64461.47;;;19.81;52.47
7832;BME280;3961;42.058;25.586;2023-04-30T08:13:31;64536.41;;;20.37;51.84
7832;BME280;3961;42.058;25.586;2023-04-30T08:15:56;64569.00;;;20.70;51.45
7832;BME280;3961;42.058;25.586;2023-04-30T08:18:21;64580.06;;;20.79;49.87
7832;BME280;3961;42.058;25.586;2023-04-30T08:20:47;64599.94;;;20.97;51.29
7832;BME280;3961;42.058;25.586;2023-04-30T08:23:13;64642.84;;;21.36;49.08
7832;BME280;3961;42.058;25.586;2023-04-30T08:25:38;64532.91;;;20.34;49.09
7832;BME280;3961;42.058;25.586;2023-04-30T08:28:05;64566.88;;;20.70;48.97
7832;BME280;3961;42.058;25.586;2023-04-30T08:30:30;64552.41;;;20.53;50.30
7832;BME280;3961;42.058;25.586;2023-04-30T08:32:56;64567.47;;;20.71;52.45
7832;BME280;3961;42.058;25.586;2023-04-30T08:35:21;64615.13;;;21.10;46.91
7832;BME280;3961;42.058;25.586;2023-04-30T08:37:47;64653.13;;;21.43;47.09
7832;BME280;3961;42.058;25.586;2023-04-30T08:40:12;64683.75;;;21.72;46.19
7832;BME280;3961;42.058;25.586;2023-04-30T08:42:44;64743.75;;;22.22;42.57
7832;BME280;3961;42.058;25.586;2023-04-30T08:45:11;64783.91;;;22.54;42.46
7832;BME280;3961;42.058;25.586;2023-04-30T08:47:39;64743.97;;;22.24;43.18
7832;BME280;3961;42.058;25.586;2023-04-30T08:50:05;64741.41;;;22.20;43.66
7832;BME280;3961;42.058;25.586;2023-04-30T08:52:33;64751.38;;;22.28;44.57
7832;BME280;3961;42.058;25.586;2023-04-30T08:55:00;64764.25;;;22.39;43.22
7832;BME280;3961;42.058;25.586;2023-04-30T08:57:26;64750.19;;;22.27;41.82
7832;BME280;3961;42.058;25.586;2023-04-30T08:59:55;64758.53;;;22.30;43.17
7832;BME280;3961;42.058;25.586;2023-04-30T09:02:20;64550.31;;;20.54;45.12
7832;BME280;3961;42.058;25.586;2023-04-30T09:04:47;64605.22;;;21.01;46.29
7832;BME280;3961;42.058;25.586;2023-04-30T09:07:14;64644.38;;;21.35;44.18
7832;BME280;3961;42.058;25.586;2023-04-30T09:09:40;64698.72;;;21.83;41.14
7832;BME280;3961;42.058;25.586;2023-04-30T09:15:00;64833.91;;;23.00;40.70
7832;BME280;3961;42.058;25.586;2023-04-30T09:17:26;64837.19;;;23.00;40.80
7832;BME280;3961;42.058;25.586;2023-04-30T09:19:52;64792.53;;;22.66;42.67
7832;BME280;3961;42.058;25.586;2023-04-30T09:22:20;64816.31;;;22.85;40.68
7832;BME280;3961;42.058;25.586;2023-04-30T09:24:47;64828.03;;;22.95;39.57
7832;BME280;3961;42.058;25.586;2023-04-30T09:27:22;64840.34;;;23.05;39.06
7832;BME280;3961;42.058;25.586;2023-04-30T09:29:48;64785.06;;;22.55;38.73
7832;BME280;3961;42.058;25.586;2023-04-30T09:32:14;64742.59;;;22.21;39.42
7832;BME280;3961;42.058;25.586;2023-04-30T09:34:40;64720.13;;;21.99;39.81
7832;BME280;3961;42.058;25.586;2023-04-30T09:37:07;64738.50;;;22.17;39.48
7832;BME280;3961;42.058;25.586;2023-04-30T09:39:36;64702.81;;;21.86;39.76
7832;BME280;3961;42.058;25.586;2023-04-30T09:42:10;64728.56;;;22.08;38.69
7832;BME280;3961;42.058;25.586;2023-04-30T09:44:38;64745.16;;;22.25;39.32
7832;BME280;3961;42.058;25.586;2023-04-30T09:47:04;64750.19;;;22.27;39.30
7832;BME280;3961;42.058;25.586;2023-04-30T09:49:29;64763.66;;;22.39;38.17
7832;BME280;3961;42.058;25.586;2023-04-30T09:51:58;64770.66;;;22.45;38.32
7832;BME280;3961;42.058;25.586;2023-04-30T09:54:28;64727.75;;;22.05;39.16
7832;BME280;3961;42.058;25.586;2023-04-30T09:56:55;64782.59;;;22.58;39.91
7832;BME280;3961;42.058;25.586;2023-04-30T09:59:30;64789.41;;;22.61;40.60
7832;BME280;3961;42.058;25.586;2023-04-30T10:02:02;64837.19;;;23.00;38.45
7832;BME280;3961;42.058;25.586;2023-04-30T10:04:30;64861.19;;;23.21;38.33
7832;BME280;3961;42.058;25.586;2023-04-30T10:06:57;64862.00;;;23.24;37.53
7832;BME280;3961;42.058;25.586;2023-04-30T10:09:28;64904.53;;;23.59;36.29
7832;BME280;3961;42.058;25.586;2023-04-30T10:11:56;64869.00;;;23.30;36.50
7832;BME280;3961;42.058;25.586;2023-04-30T10:14:22;64885.41;;;23.44;36.96
7832;BME280;3961;42.058;25.586;2023-04-30T10:16:56;64849.47;;;23.11;37.23
7832;BME280;3961;42.058;25.586;2023-04-30T10:19:25;64881.69;;;23.39;36.58
7832;BME280;3961;42.058;25.586;2023-04-30T10:21:54;64907.09;;;23.63;37.31
7832;BME280;3961;42.058;25.586;2023-04-30T10:24:20;64883.28;;;23.45;37.78
7832;BME280;3961;42.058;25.586;2023-04-30T10:26:46;64888.69;;;23.45;37.40
7832;BME280;3961;42.058;25.586;2023-04-30T10:29:13;64908.63;;;23.62;36.49
7832;BME280;3961;42.058;25.586;2023-04-30T10:31:45;64903.38;;;23.58;36.24
7832;BME280;3961;42.058;25.586;2023-04-30T10:34:51;64838.56;;;23.04;36.87
7832;BME280;3961;42.058;25.586;2023-04-30T10:40:38;64896.91;;;23.52;38.02
7832;BME280;3961;42.058;25.586;2023-04-30T10:43:04;64929.94;;;23.83;38.03
7832;BME280;3961;42.058;25.586;2023-04-30T10:45:37;64943.19;;;23.92;37.26
7832;BME280;3961;42.058;25.586;2023-04-30T10:48:04;64969.78;;;24.18;36.16
7832;BME280;3961;42.058;25.586;2023-04-30T10:50:30;64970.72;;;24.16;36.73
7832;BME280;3961;42.058;25.586;2023-04-30T10:53:04;64982.81;;;24.24;35.41
7832;BME280;3961;42.058;25.586;2023-04-30T10:55:31;64980.56;;;24.29;35.10
7832;BME280;3961;42.058;25.586;2023-04-30T10:57:58;65002.41;;;24.43;35.98
7832;BME280;3961;42.058;25.586;2023-04-30T11:00:25;65042.25;;;24.78;36.74
7832;BME280;3961;42.058;25.586;2023-04-30T11:02:56;65030.75;;;24.70;34.86
7832;BME280;3961;42.058;25.586;2023-04-30T11:05:33;64917.44;;;23.70;34.82
7832;BME280;3961;42.058;25.586;2023-04-30T11:07:59;64906.50;;;23.63;35.68
7832;BME280;3961;42.058;25.586;2023-04-30T11:10:29;64875.25;;;23.33;34.55
7832;BME280;3961;42.058;25.586;2023-04-30T11:12:56;64838.00;;;23.03;35.50
7832;BME280;3961;42.058;25.586;2023-04-30T11:15:26;64831.78;;;23.00;35.54
7832;BME280;3961;42.058;25.586;2023-04-30T11:17:55;64863.53;;;23.23;35.52
7832;BME280;3961;42.058;25.586;2023-04-30T11:20:23;64879.34;;;23.37;37.03
7832;BME280;3961;42.058;25.586;2023-04-30T11:25:41;64957.84;;;24.05;36.85
7832;BME280;3961;42.058;25.586;2023-04-30T11:28:15;64962.53;;;24.09;37.25
7832;BME280;3961;42.058;25.586;2023-04-30T11:30:51;64968.75;;;24.12;37.28
7832;BME280;3961;42.058;25.586;2023-04-30T11:33:18;64923.72;;;23.80;37.16
7832;BME280;3961;42.058;25.586;2023-04-30T11:35:44;64845.59;;;23.10;36.61
7832;BME280;3961;42.058;25.586;2023-04-30T11:38:14;64812.59;;;22.79;36.89
7832;BME280;3961;42.058;25.586;2023-04-30T11:40:42;64764.66;;;22.44;37.79
7832;BME280;3961;42.058;25.586;2023-04-30T11:43:26;64787.06;;;22.59;38.79
7832;BME280;3961;42.058;25.586;2023-04-30T11:46:11;64813.03;;;22.84;38.88
7832;BME280;3961;42.058;25.586;2023-04-30T11:48:39;64838.22;;;23.06;38.17
7832;BME280;3961;42.058;25.586;2023-04-30T11:51:22;64851.66;;;23.18;38.97
7832;BME280;3961;42.058;25.586;2023-04-30T11:53:52;64878.38;;;23.38;37.50
7832;BME280;3961;42.058;25.586;2023-04-30T11:56:22;64902.41;;;23.59;37.57
7832;BME280;3961;42.058;25.586;2023-04-30T11:58:50;64953.53;;;23.99;37.78
7832;BME280;3961;42.058;25.586;2023-04-30T12:01:17;65002.63;;;24.46;36.91
7832;BME280;3961;42.058;25.586;2023-04-30T12:03:47;64985.41;;;24.29;36.63
7832;BME280;3961;42.058;25.586;2023-04-30T12:08:47;64946.34;;;23.97;35.43
7832;BME280;3961;42.058;25.586;2023-04-30T12:11:20;64912.59;;;23.70;37.02
7832;BME280;3961;42.058;25.586;2023-04-30T12:13:53;64869.00;;;23.30;36.08
7832;BME280;3961;42.058;25.586;2023-04-30T12:16:19;64840.34;;;23.05;37.53
7832;BME280;3961;42.058;25.586;2023-04-30T12:18:46;64838.81;;;23.06;38.24
7832;BME280;3961;42.058;25.586;2023-04-30T12:21:11;64872.75;;;23.36;38.34
7832;BME280;3961;42.058;25.586;2023-04-30T12:23:37;64811.41;;;22.78;38.64
7832;BME280;3961;42.058;25.586;2023-04-30T12:26:03;64761.69;;;22.35;38.86
7832;BME280;3961;42.058;25.586;2023-04-30T12:28:28;64730.88;;;22.10;38.99
7832;BME280;3961;42.058;25.586;2023-04-30T12:30:54;64737.53;;;22.19;40.39
7832;BME280;3961;42.058;25.586;2023-04-30T12:33:20;64688.44;;;21.76;40.45
7832;BME280;3961;42.058;25.586;2023-04-30T12:35:45;64672.41;;;21.60;40.85
7832;BME280;3961;42.058;25.586;2023-04-30T12:38:15;64622.13;;;21.16;41.52
7832;BME280;3961;42.058;25.586;2023-04-30T12:40:46;64606.59;;;21.05;41.93
7832;BME280;3961;42.058;25.586;2023-04-30T12:43:14;64601.13;;;20.98;43.27
7832;BME280;3961;42.058;25.586;2023-04-30T12:45:53;64610.47;;;21.06;43.30
7832;BME280;3961;42.058;25.586;2023-04-30T12:48:21;64599.94;;;20.97;42.31
7832;BME280;3961;42.058;25.586;2023-04-30T12:51:01;64629.75;;;21.23;42.34
7832;BME280;3961;42.058;25.586;2023-04-30T12:53:27;64601.25;;;20.93;42.31
7832;BME280;3961;42.058;25.586;2023-04-30T12:56:26;64624.13;;;21.20;42.06
7832;BME280;3961;42.058;25.586;2023-04-30T12:58:51;64646.94;;;21.40;41.79
7832;BME280;3961;42.058;25.586;2023-04-30T13:01:20;64660.94;;;21.52;40.72
7832;BME280;3961;42.058;25.586;2023-04-30T13:03:48;64713.69;;;21.93;41.40
7832;BME280;3961;42.058;25.586;2023-04-30T13:06:13;64711.00;;;21.93;40.31
7832;BME280;3961;42.058;25.586;2023-04-30T13:08:39;64667.16;;;21.55;40.44
7832;BME280;3961;42.058;25.586;2023-04-30T13:11:05;64711.59;;;21.94;41.16
7832;BME280;3961;42.058;25.586;2023-04-30T13:13:30;64734.19;;;22.11;40.23
7832;BME280;3961;42.058;25.586;2023-04-30T13:15:56;64742.00;;;22.20;39.97
7832;BME280;3961;42.058;25.586;2023-04-30T13:18:21;64755.25;;;22.29;40.77
7832;BME280;3961;42.058;25.586;2023-04-30T13:20:47;64760.88;;;22.32;40.87
7832;BME280;3961;42.058;25.586;2023-04-30T13:23:12;64773.94;;;22.45;41.99
7832;BME280;3961;42.058;25.586;2023-04-30T13:25:39;64791.72;;;22.63;41.71
7832;BME280;3961;42.058;25.586;2023-04-30T13:28:05;64781.34;;;22.50;42.48
7832;BME280;3961;42.058;25.586;2023-04-30T13:30:30;64722.13;;;22.03;42.94
7832;BME280;3961;42.058;25.586;2023-04-30T13:32:56;64656.03;;;21.45;43.97
7832;BME280;3961;42.058;25.586;2023-04-30T13:35:23;64602.28;;;20.99;44.14
7832;BME280;3961;42.058;25.586;2023-04-30T13:37:49;64573.53;;;20.78;45.98